Time;durP1;ratioP1;P1;durP2;ratioP2;P2;SDS_P1;SDS_P2;PMS_P1;PMS_P2;Temp;Humidity;BMP_temperature;BMP_pressure;BME280_temperature;BME280_humidity;BME280_pressure;Samples;Min_cycle;Max_cycle;Signal;HPM_P1;HPM_P2
2022/03/09 00:00:05;;;;;;;4.50;2.05;;;3.30;99.90;;;;;;5064450;28;20037;-80
2022/03/09 00:02:31;;;;;;;2.90;2.30;;;3.30;99.90;;;;;;5068249;28;20040;-80
2022/03/09 00:04:56;;;;;;;2.47;2.05;;;3.20;99.90;;;;;;5051686;28;20131;-80
2022/03/09 00:07:22;;;;;;;4.47;2.40;;;3.20;99.90;;;;;;5068182;28;20044;-81
2022/03/09 00:09:47;;;;;;;1.67;1.55;;;3.20;99.90;;;;;;5049256;28;20041;-81
2022/03/09 00:12:13;;;;;;;2.00;1.80;;;3.20;99.90;;;;;;5068000;28;20054;-80
2022/03/09 00:14:39;;;;;;;3.83;2.40;;;3.10;99.90;;;;;;5067712;28;20041;-82
2022/03/09 00:17:04;;;;;;;4.53;2.20;;;3.10;99.90;;;;;;5051299;28;20048;-81
2022/03/09 00:19:30;;;;;;;2.47;1.98;;;3.10;99.90;;;;;;5068477;28;20097;-81
2022/03/09 00:21:56;;;;;;;2.60;2.40;;;3.10;99.90;;;;;;5066072;28;20094;-80
2022/03/09 00:24:21;;;;;;;2.53;2.33;;;3.00;99.90;;;;;;5052283;28;20041;-81
2022/03/09 00:26:47;;;;;;;5.22;2.42;;;3.00;99.90;;;;;;5071834;28;20060;-81
2022/03/09 00:29:13;;;;;;;4.05;2.63;;;3.80;99.90;;;;;;5067454;28;20114;-81
2022/03/09 00:31:39;;;;;;;3.95;2.40;;;3.00;99.90;;;;;;5067739;28;20043;-81
2022/03/09 00:34:05;;;;;;;3.90;2.92;;;2.60;99.90;;;;;;5068499;28;20048;-81
2022/03/09 00:36:30;;;;;;;2.67;2.42;;;2.50;99.90;;;;;;5067630;28;20454;-81
2022/03/09 00:38:56;;;;;;;3.30;2.40;;;3.00;99.90;;;;;;5052714;28;20028;-81
2022/03/09 00:41:22;;;;;;;2.85;2.38;;;3.00;99.90;;;;;;5053436;28;20083;-81
2022/03/09 00:43:47;;;;;;;3.10;2.17;;;2.90;99.90;;;;;;5069192;28;20105;-81
2022/03/09 00:46:13;;;;;;;3.38;2.63;;;2.90;99.90;;;;;;5055200;28;20495;-81
2022/03/09 00:48:39;;;;;;;4.03;3.00;;;2.80;99.90;;;;;;5051598;28;20102;-81
2022/03/09 00:51:06;;;;;;;2.95;2.22;;;2.80;99.90;;;;;;5051262;28;20045;-81
2022/03/09 00:53:32;;;;;;;4.97;3.13;;;2.70;99.90;;;;;;5067674;28;20048;-82
2022/03/09 00:55:57;;;;;;;2.88;2.17;;;2.70;99.90;;;;;;5051139;28;20097;-82
2022/03/09 00:58:23;;;;;;;3.53;2.47;;;2.70;99.90;;;;;;5067833;28;20028;-81
2022/03/09 01:00:49;;;;;;;5.05;2.72;;;2.70;99.90;;;;;;5068641;28;20438;-81
2022/03/09 01:03:15;;;;;;;5.15;3.13;;;2.70;99.90;;;;;;5067871;28;20480;-82
2022/03/09 01:05:43;;;;;;;4.88;2.50;;;2.50;99.90;;;;;;5051250;28;20048;-81
2022/03/09 01:08:09;;;;;;;5.80;2.67;;;4.00;99.90;;;;;;5067503;28;20043;-80
2022/03/09 01:10:35;;;;;;;3.65;2.50;;;2.50;99.90;;;;;;5050790;28;20048;-80
2022/03/09 01:13:01;;;;;;;3.13;2.65;;;2.50;99.90;;;;;;5066829;28;20040;-80
2022/03/09 01:15:26;;;;;;;3.20;2.80;;;2.40;99.90;;;;;;5072660;28;20400;-82
2022/03/09 01:17:52;;;;;;;2.92;2.50;;;2.40;99.90;;;;;;5050548;28;20045;-81
2022/03/09 01:20:18;;;;;;;3.58;2.97;;;2.40;99.90;;;;;;5069053;28;20553;-81
2022/03/09 01:22:43;;;;;;;2.85;2.47;;;2.40;99.90;;;;;;5050300;28;20041;-80
2022/03/09 01:25:09;;;;;;;4.82;3.08;;;2.30;99.90;;;;;;5049784;28;20388;-81
2022/03/09 01:27:36;;;;;;;3.38;2.60;;;2.30;99.90;;;;;;5050375;28;20043;-80
2022/03/09 01:30:04;;;;;;;2.75;2.47;;;1.20;99.90;;;;;;5067229;28;20083;-83
2022/03/09 01:32:29;;;;;;;4.00;3.08;;;2.20;99.90;;;;;;5049893;28;20082;-82
2022/03/09 01:34:55;;;;;;;5.13;2.92;;;2.20;99.90;;;;;;5066296;28;20041;-81
2022/03/09 01:37:21;;;;;;;3.70;2.60;;;2.30;99.90;;;;;;5067064;28;20559;-81
2022/03/09 01:39:46;;;;;;;3.95;2.88;;;2.20;99.90;;;;;;5052849;28;20127;-81
2022/03/09 01:42:12;;;;;;;4.15;3.05;;;3.00;99.90;;;;;;5054940;28;20509;-81
2022/03/09 01:44:38;;;;;;;3.72;3.00;;;2.20;99.90;;;;;;5073134;28;20480;-81
2022/03/09 01:47:06;;;;;;;5.40;3.70;;;2.20;99.90;;;;;;5066884;28;20052;-81
2022/03/09 01:49:32;;;;;;;4.00;2.83;;;1.70;99.90;;;;;;5071545;28;20055;-80
2022/03/09 01:52:00;;;;;;;3.90;3.13;;;2.10;99.90;;;;;;5078594;28;20484;-81
2022/03/09 01:54:27;;;;;;;5.68;3.15;;;2.00;99.90;;;;;;5073099;28;20032;-80
2022/03/09 01:56:52;;;;;;;3.53;3.08;;;3.50;99.90;;;;;;5067177;28;20080;-80
2022/03/09 01:59:18;;;;;;;3.95;2.97;;;2.00;99.90;;;;;;5059175;28;20087;-80
2022/03/09 02:01:45;;;;;;;5.32;2.80;;;2.10;99.90;;;;;;5057022;28;20052;-79
2022/03/09 02:04:12;;;;;;;3.50;2.95;;;2.10;99.90;;;;;;5067683;28;20048;-81
2022/03/09 02:06:38;;;;;;;3.70;3.20;;;2.10;99.90;;;;;;5051867;28;20040;-80
2022/03/09 02:11:50;;;;;;;6.30;3.38;;;2.10;99.90;;;;;;5064490;28;20052;-81
2022/03/09 02:14:36;;;;;;;3.85;3.03;;;2.10;99.90;;;;;;5058288;28;20040;-81
2022/03/09 02:17:05;;;;;;;5.07;3.17;;;2.00;99.90;;;;;;5054119;28;20045;-81
2022/03/09 02:19:31;;;;;;;3.92;3.10;;;2.00;99.90;;;;;;5059920;28;20369;-81
2022/03/09 02:22:15;;;;;;;3.70;3.22;;;1.90;99.90;;;;;;5065312;28;20059;-80
2022/03/09 02:24:41;;;;;;;5.80;3.50;;;2.00;99.90;;;;;;5066978;28;20612;-81
2022/03/09 02:27:06;;;;;;;5.50;3.60;;;1.90;99.90;;;;;;5049560;28;20143;-80
2022/03/09 02:29:32;;;;;;;3.85;3.10;;;1.70;99.90;;;;;;5066242;28;20048;-81
2022/03/09 02:32:02;;;;;;;6.40;3.55;;;1.90;99.90;;;;;;5068376;28;20418;-82
2022/03/09 02:34:28;;;;;;;5.90;3.63;;;1.90;99.90;;;;;;5071713;28;20037;-81
2022/03/09 02:36:54;;;;;;;5.47;3.70;;;1.90;99.90;;;;;;5069816;28;20069;-81
2022/03/09 02:39:20;;;;;;;5.88;3.63;;;2.00;99.90;;;;;;5079985;28;20123;-81
2022/03/09 02:41:45;;;;;;;9.95;4.20;;;1.90;99.90;;;;;;5049124;28;20179;-82
2022/03/09 02:44:11;;;;;;;4.40;3.80;;;3.00;99.90;;;;;;5099118;28;20094;-81
2022/03/09 02:46:37;;;;;;;7.32;3.70;;;1.70;99.90;;;;;;5068365;28;20403;-80
2022/03/09 02:49:02;;;;;;;8.90;3.97;;;1.80;99.90;;;;;;5057920;28;20041;-81
2022/03/09 02:51:28;;;;;;;3.50;3.03;;;1.80;99.90;;;;;;5066250;28;20041;-81
2022/03/09 02:53:55;;;;;;;4.95;3.88;;;1.80;99.90;;;;;;5058273;28;20039;-81
2022/03/09 02:56:20;;;;;;;5.57;4.10;;;1.80;99.90;;;;;;5068858;28;20458;-81
2022/03/09 02:58:46;;;;;;;4.63;4.00;;;1.80;99.90;;;;;;5066855;28;20044;-80
2022/03/09 03:01:13;;;;;;;6.60;3.70;;;1.80;99.90;;;;;;5049398;28;20044;-81
2022/03/09 03:03:41;;;;;;;7.30;4.55;;;1.70;99.90;;;;;;5057765;28;20032;-81
2022/03/09 03:06:07;;;;;;;6.88;3.88;;;1.70;99.90;;;;;;5066373;28;20048;-82
2022/03/09 03:08:33;;;;;;;4.38;3.83;;;1.80;99.90;;;;;;5049159;28;20063;-81
2022/03/09 03:11:00;;;;;;;8.68;4.53;;;1.70;99.90;;;;;;5064716;28;20048;-81
2022/03/09 03:13:25;;;;;;;4.75;3.75;;;1.60;99.90;;;;;;5066577;28;20074;-81
2022/03/09 03:15:51;;;;;;;6.32;3.88;;;1.50;99.90;;;;;;5070608;28;20460;-81
2022/03/09 03:18:16;;;;;;;6.28;4.05;;;1.60;99.90;;;;;;5051850;28;20040;-81
2022/03/09 03:20:42;;;;;;;8.25;4.47;;;1.60;99.90;;;;;;5052233;28;20051;-81
2022/03/09 03:23:07;;;;;;;9.18;3.95;;;1.50;99.90;;;;;;5075500;28;20039;-81
2022/03/09 03:25:33;;;;;;;5.28;4.15;;;1.50;99.90;;;;;;5069637;28;20127;-81
2022/03/09 03:27:59;;;;;;;6.85;4.50;;;1.60;99.90;;;;;;5068801;28;20377;-80
2022/03/09 03:30:24;;;;;;;4.50;4.00;;;1.90;99.90;;;;;;5071064;28;20040;-80
2022/03/09 03:32:50;;;;;;;5.13;3.90;;;2.60;99.90;;;;;;5055425;28;20067;-81
2022/03/09 03:35:15;;;;;;;5.47;4.28;;;1.60;99.90;;;;;;5053658;28;20048;-82
2022/03/09 03:37:41;;;;;;;6.35;4.40;;;1.50;99.90;;;;;;5072004;28;20025;-81
2022/03/09 03:40:07;;;;;;;8.35;4.47;;;1.50;99.90;;;;;;5064914;28;20555;-81
2022/03/09 03:42:33;;;;;;;5.57;3.97;;;1.50;99.90;;;;;;5045227;28;20056;-81
2022/03/09 03:44:58;;;;;;;6.47;4.60;;;1.40;99.90;;;;;;5050740;28;20044;-81
2022/03/09 03:47:24;;;;;;;7.00;4.72;;;1.50;99.90;;;;;;5068469;28;20041;-81
2022/03/09 03:49:50;;;;;;;6.55;4.55;;;1.40;99.90;;;;;;5050574;28;20041;-81
2022/03/09 03:52:15;;;;;;;6.47;4.05;;;1.40;99.90;;;;;;5069035;28;20040;-80
2022/03/09 03:54:41;;;;;;;8.48;4.63;;;1.40;99.90;;;;;;5065745;28;20036;-80
2022/03/09 03:57:07;;;;;;;5.53;4.88;;;1.70;99.90;;;;;;5050574;28;20048;-80
2022/03/09 03:59:33;;;;;;;7.03;4.80;;;1.40;99.90;;;;;;5048556;28;20442;-80
2022/03/09 04:01:59;;;;;;;6.38;4.85;;;1.30;99.90;;;;;;5067864;28;20093;-80
2022/03/09 04:04:24;;;;;;;9.10;5.20;;;1.40;99.90;;;;;;5076222;28;20045;-79
2022/03/09 04:06:50;;;;;;;6.18;4.30;;;2.00;99.90;;;;;;5075966;28;20416;-80
2022/03/09 04:09:16;;;;;;;6.25;4.78;;;1.30;99.90;;;;;;5072987;28;20044;-79
2022/03/09 04:11:42;;;;;;;6.72;5.03;;;1.40;99.90;;;;;;5055836;28;20049;-81
2022/03/09 04:14:07;;;;;;;8.52;4.90;;;-0.20;99.90;;;;;;5064741;28;20048;-81
2022/03/09 04:16:33;;;;;;;7.40;4.35;;;1.40;99.90;;;;;;5066042;28;20040;-82
2022/03/09 04:18:58;;;;;;;6.03;4.57;;;1.40;99.90;;;;;;5055591;28;20036;-80
2022/03/09 04:21:24;;;;;;;8.95;4.72;;;1.40;99.90;;;;;;5066170;28;20125;-81
2022/03/09 04:23:50;;;;;;;6.88;4.55;;;1.40;99.90;;;;;;5045012;28;20045;-81
2022/03/09 04:26:16;;;;;;;7.47;4.95;;;1.40;99.90;;;;;;5051071;28;20036;-80
2022/03/09 04:28:41;;;;;;;8.07;5.32;;;1.70;99.90;;;;;;5048717;28;20661;-80
2022/03/09 04:31:07;;;;;;;6.03;5.03;;;2.00;99.90;;;;;;5065888;28;20531;-80
2022/03/09 04:33:32;;;;;;;7.10;4.82;;;1.90;99.90;;;;;;5071256;28;20044;-80
2022/03/09 04:35:58;;;;;;;9.18;5.10;;;1.40;99.90;;;;;;5060247;28;20072;-81
2022/03/09 04:38:24;;;;;;;8.70;4.88;;;1.30;99.90;;;;;;5069491;28;20048;-81
2022/03/09 04:40:49;;;;;;;8.73;5.75;;;1.20;99.90;;;;;;5056528;28;20501;-81
2022/03/09 04:43:15;;;;;;;8.57;5.57;;;1.30;99.90;;;;;;5072454;28;20480;-81
2022/03/09 04:45:40;;;;;;;8.25;4.95;;;1.20;99.90;;;;;;5076835;28;20032;-81
2022/03/09 04:48:06;;;;;;;6.45;5.05;;;1.20;99.90;;;;;;5065058;28;20044;-81
2022/03/09 04:50:31;;;;;;;8.07;5.03;;;3.00;99.90;;;;;;5052020;28;20495;-81
2022/03/09 04:52:58;;;;;;;8.70;5.82;;;1.10;99.90;;;;;;5068777;28;20040;-82
2022/03/09 04:55:23;;;;;;;8.48;6.30;;;1.20;99.90;;;;;;5073637;28;20742;-81
2022/03/09 04:57:49;;;;;;;11.02;5.55;;;1.10;99.90;;;;;;5068201;28;20044;-81
2022/03/09 05:00:15;;;;;;;8.00;5.28;;;1.00;99.90;;;;;;5052512;28;20051;-81
2022/03/09 05:02:41;;;;;;;8.27;5.60;;;1.10;99.90;;;;;;5074731;28;20063;-82
2022/03/09 05:05:07;;;;;;;8.23;5.68;;;2.10;99.90;;;;;;5068680;28;20468;-81
2022/03/09 05:07:32;;;;;;;7.68;5.43;;;1.00;99.90;;;;;;5067870;28;20054;-81
2022/03/09 05:09:59;;;;;;;10.40;5.13;;;2.90;99.90;;;;;;5070909;28;20036;-81
2022/03/09 05:12:25;;;;;;;8.63;6.57;;;1.00;99.90;;;;;;5071748;28;20032;-81
2022/03/09 05:14:50;;;;;;;8.48;5.40;;;1.00;99.90;;;;;;5074848;28;20059;-81
2022/03/09 05:17:16;;;;;;;8.98;4.95;;;1.10;99.90;;;;;;5054010;28;20044;-82
2022/03/09 05:19:41;;;;;;;10.70;6.00;;;0.90;99.90;;;;;;5070308;28;20068;-81
2022/03/09 05:22:07;;;;;;;10.63;5.70;;;0.90;99.90;;;;;;5054360;28;20047;-81
2022/03/09 05:24:33;;;;;;;7.40;5.53;;;0.50;99.90;;;;;;5055088;28;20052;-81
2022/03/09 05:26:58;;;;;;;6.88;5.15;;;0.90;99.90;;;;;;5050357;28;20052;-82
2022/03/09 05:29:24;;;;;;;8.68;5.65;;;1.00;99.90;;;;;;5072025;28;20377;-82
2022/03/09 05:31:49;;;;;;;8.00;5.70;;;0.30;99.90;;;;;;5049424;28;20044;-82
2022/03/09 05:34:15;;;;;;;6.30;5.35;;;0.30;99.90;;;;;;5068227;28;20040;-80
2022/03/09 05:36:41;;;;;;;6.88;5.65;;;0.80;99.90;;;;;;5067558;28;20049;-82
2022/03/09 05:39:07;;;;;;;6.65;4.85;;;0.80;99.90;;;;;;5055425;28;20599;-82
2022/03/09 05:41:33;;;;;;;8.65;5.40;;;-0.90;99.90;;;;;;5057007;28;20333;-81
2022/03/09 05:43:59;;;;;;;6.57;5.22;;;0.70;99.90;;;;;;5087791;28;20049;-81
2022/03/09 05:46:25;;;;;;;8.80;5.78;;;0.90;99.90;;;;;;5080023;28;20401;-80
2022/03/09 05:48:50;;;;;;;8.40;6.13;;;3.20;99.90;;;;;;5070420;28;20393;-81
2022/03/09 05:51:16;;;;;;;8.20;5.78;;;0.40;99.90;;;;;;5065394;28;20047;-81
2022/03/09 05:53:41;;;;;;;7.45;5.10;;;0.70;99.90;;;;;;5066919;28;20109;-82
2022/03/09 05:56:07;;;;;;;9.90;6.05;;;0.60;99.90;;;;;;5066369;28;20170;-82
2022/03/09 05:58:33;;;;;;;11.07;6.03;;;1.00;99.90;;;;;;5050073;28;20109;-81
2022/03/09 06:00:59;;;;;;;8.35;5.57;;;0.10;99.90;;;;;;5065163;28;20043;-80
2022/03/09 06:03:24;;;;;;;7.72;5.50;;;0.70;99.90;;;;;;5050297;28;20114;-80
2022/03/09 06:05:50;;;;;;;9.27;4.93;;;0.60;99.90;;;;;;5066690;28;20062;-80
2022/03/09 06:08:16;;;;;;;8.20;5.63;;;0.70;99.90;;;;;;5065812;28;20131;-81
2022/03/09 06:10:42;;;;;;;10.25;5.50;;;0.80;99.90;;;;;;5067343;28;20051;-80
2022/03/09 06:13:07;;;;;;;8.57;6.20;;;0.70;99.90;;;;;;5055440;28;20443;-81
2022/03/09 06:15:33;;;;;;;13.00;7.90;;;0.60;99.90;;;;;;5054551;28;20047;-81
2022/03/09 06:17:59;;;;;;;9.25;5.95;;;0.60;99.90;;;;;;5049508;28;20045;-80
2022/03/09 06:20:28;;;;;;;8.88;5.88;;;0.70;99.90;;;;;;5049596;28;20543;-81
2022/03/09 06:22:54;;;;;;;9.68;5.65;;;0.60;99.90;;;;;;5049304;28;20047;-81
2022/03/09 06:25:19;;;;;;;9.02;6.15;;;0.80;99.90;;;;;;5066685;28;20495;-82
2022/03/09 06:27:49;;;;;;;10.15;6.60;;;0.70;99.90;;;;;;5048928;28;20084;-81
2022/03/09 06:30:15;;;;;;;8.55;5.60;;;0.80;99.90;;;;;;5032195;28;20064;-80
2022/03/09 06:32:42;;;;;;;8.68;5.78;;;0.40;99.90;;;;;;5049037;28;20495;-79
2022/03/09 06:35:08;;;;;;;7.63;5.53;;;0.80;99.90;;;;;;5056493;28;20040;-79
2022/03/09 06:37:34;;;;;;;9.00;5.38;;;0.70;99.90;;;;;;5049845;28;20044;-81
2022/03/09 06:40:00;;;;;;;8.85;5.38;;;0.80;99.90;;;;;;5064948;28;20503;-80
2022/03/09 06:42:26;;;;;;;14.55;9.45;;;2.60;99.90;;;;;;5055487;28;20082;-81
2022/03/09 06:44:53;;;;;;;16.65;9.82;;;1.10;99.90;;;;;;5072873;28;20036;-80
2022/03/09 06:47:19;;;;;;;9.95;6.28;;;1.40;99.90;;;;;;5066380;28;20040;-80
2022/03/09 06:49:45;;;;;;;8.27;5.60;;;0.60;99.90;;;;;;5065161;28;20045;-80
2022/03/09 06:52:10;;;;;;;15.13;7.07;;;0.70;99.90;;;;;;5067060;28;20042;-79
2022/03/09 06:54:36;;;;;;;8.85;5.43;;;0.70;99.90;;;;;;5077152;28;20094;-80
2022/03/09 06:57:02;;;;;;;7.10;5.10;;;0.70;99.90;;;;;;5073264;28;20056;-80
2022/03/09 06:59:27;;;;;;;8.27;6.32;;;0.70;99.90;;;;;;5055303;28;20036;-81
2022/03/09 07:01:53;;;;;;;7.38;5.65;;;0.70;99.90;;;;;;4346612;28;10000759;-80
2022/03/09 07:04:19;;;;;;;8.45;5.97;;;0.80;99.90;;;;;;5075484;28;20044;-81
2022/03/09 07:06:44;;;;;;;7.65;5.40;;;0.80;99.90;;;;;;5069715;28;20052;-80
2022/03/09 07:09:11;;;;;;;10.23;5.80;;;3.20;99.90;;;;;;5070975;28;20044;-81
2022/03/09 07:11:36;;;;;;;8.65;5.93;;;0.80;99.90;;;;;;5070689;28;20036;-80
2022/03/09 07:14:03;;;;;;;7.82;4.88;;;0.80;99.90;;;;;;5057350;28;20063;-80
2022/03/09 07:16:29;;;;;;;8.18;5.57;;;0.90;99.90;;;;;;5056119;28;20044;-80
2022/03/09 07:18:56;;;;;;;7.68;5.75;;;0.80;99.90;;;;;;5050696;28;20044;-79
2022/03/09 07:21:21;;;;;;;9.63;6.00;;;0.90;99.90;;;;;;5068094;28;20064;-80
2022/03/09 07:23:47;;;;;;;9.23;5.25;;;1.00;99.90;;;;;;5067345;28;20469;-80
2022/03/09 07:26:13;;;;;;;8.35;5.18;;;1.00;99.90;;;;;;5068843;28;20036;-80
2022/03/09 07:28:39;;;;;;;10.43;5.43;;;1.00;99.90;;;;;;5067700;28;20056;-80
2022/03/09 07:31:04;;;;;;;9.95;6.00;;;1.00;99.90;;;;;;5073455;28;20051;-81
2022/03/09 07:33:30;;;;;;;7.85;5.43;;;1.40;99.90;;;;;;5049728;28;20039;-80
2022/03/09 07:35:56;;;;;;;7.60;4.93;;;1.20;99.90;;;;;;5075147;28;20032;-81
2022/03/09 07:38:22;;;;;;;8.27;5.65;;;0.40;99.90;;;;;;5056775;28;20105;-81
2022/03/09 07:40:48;;;;;;;7.38;6.05;;;1.30;99.90;;;;;;5062308;28;20063;-81
2022/03/09 07:43:14;;;;;;;31.75;17.85;;;3.10;99.90;;;;;;5071433;28;20044;-81
2022/03/09 07:45:40;;;;;;;28.40;15.50;;;2.20;99.90;;;;;;5065327;28;20041;-81
2022/03/09 07:48:08;;;;;;;18.13;11.00;;;1.90;99.90;;;;;;5067788;28;20111;-81
2022/03/09 07:50:33;;;;;;;10.93;5.53;;;1.40;99.90;;;;;;5063331;28;20041;-81
2022/03/09 07:52:59;;;;;;;8.40;5.93;;;1.60;99.90;;;;;;5048656;28;20043;-81
2022/03/09 07:55:24;;;;;;;9.68;5.88;;;1.60;99.90;;;;;;5067233;28;20089;-81
2022/03/09 07:57:50;;;;;;;34.63;18.23;;;1.70;99.90;;;;;;5067958;28;20094;-79
2022/03/09 08:00:16;;;;;;;45.00;23.40;;;1.80;99.90;;;;;;5056950;28;20100;-81
2022/03/09 08:02:42;;;;;;;13.13;8.43;;;1.40;99.90;;;;;;5055137;28;20040;-80
2022/03/09 08:05:08;;;;;;;7.07;5.18;;;1.90;99.90;;;;;;5076821;28;20052;-81
2022/03/09 08:07:34;;;;;;;9.18;5.68;;;2.00;99.90;;;;;;5069024;28;20055;-81
2022/03/09 08:10:00;;;;;;;13.15;5.68;;;2.10;99.90;;;;;;5054037;28;20115;-81
2022/03/09 08:12:27;;;;;;;7.90;5.07;;;2.10;99.90;;;;;;5052649;28;20124;-81
2022/03/09 08:14:52;;;;;;;9.07;5.65;;;2.10;99.90;;;;;;5068155;28;20127;-80
2022/03/09 08:17:19;;;;;;;7.70;5.65;;;2.40;99.90;;;;;;5074937;28;20544;-81
2022/03/09 08:19:45;;;;;;;9.18;5.50;;;2.40;99.90;;;;;;5054216;28;20040;-80
2022/03/09 08:22:11;;;;;;;8.90;5.05;;;3.20;99.90;;;;;;5068293;28;20123;-80
2022/03/09 08:24:36;;;;;;;7.47;5.40;;;2.50;99.90;;;;;;5052473;28;20067;-81
2022/03/09 08:27:03;;;;;;;9.32;5.68;;;2.60;99.90;;;;;;5095875;28;20522;-81
2022/03/09 08:29:29;;;;;;;7.32;5.43;;;2.70;99.90;;;;;;5064730;28;20072;-81
2022/03/09 08:31:55;;;;;;;6.82;5.25;;;2.80;99.90;;;;;;5055205;28;20066;-82
2022/03/09 08:34:20;;;;;;;10.98;5.03;;;2.90;99.90;;;;;;5045983;28;20484;-81
2022/03/09 08:36:46;;;;;;;7.32;5.40;;;3.00;99.90;;;;;;5086817;28;20052;-81
2022/03/09 08:39:12;;;;;;;9.60;5.60;;;3.10;99.90;;;;;;5075604;28;20049;-82
2022/03/09 08:41:37;;;;;;;8.30;5.22;;;3.20;99.90;;;;;;5060763;28;20147;-80
2022/03/09 08:44:03;;;;;;;10.88;5.80;;;3.30;99.90;;;;;;5058894;28;20060;-82
2022/03/09 08:46:29;;;;;;;10.23;5.72;;;3.50;99.90;;;;;;5055014;28;20048;-81
2022/03/09 08:48:55;;;;;;;7.80;5.40;;;3.50;99.90;;;;;;5057868;28;20123;-81
2022/03/09 08:51:21;;;;;;;8.63;5.55;;;3.70;99.90;;;;;;5069163;28;20044;-82
2022/03/09 08:53:48;;;;;;;10.00;6.07;;;3.70;99.90;;;;;;5076671;28;20447;-82
2022/03/09 08:56:13;;;;;;;9.13;5.22;;;3.80;99.90;;;;;;5053502;28;20048;-82
2022/03/09 08:58:39;;;;;;;9.13;5.72;;;4.00;99.90;;;;;;5074486;28;20047;-82
2022/03/09 09:01:05;;;;;;;8.00;5.00;;;4.00;99.90;;;;;;5068068;28;20044;-82
2022/03/09 09:03:30;;;;;;;15.25;5.82;;;4.10;99.90;;;;;;5068778;28;20044;-82
2022/03/09 09:05:56;;;;;;;5.95;5.18;;;4.30;99.90;;;;;;5060649;28;20083;-82
2022/03/09 09:08:22;;;;;;;7.53;4.82;;;4.30;99.90;;;;;;5060246;28;20040;-82
2022/03/09 09:10:48;;;;;;;9.27;5.43;;;4.50;99.90;;;;;;5069492;28;20083;-82
2022/03/09 09:13:14;;;;;;;5.78;5.18;;;4.60;99.90;;;;;;5064843;28;20044;-82
2022/03/09 09:15:41;;;;;;;6.80;4.95;;;4.60;99.90;;;;;;5057832;28;20129;-82
2022/03/09 09:18:07;;;;;;;8.02;5.35;;;4.80;99.90;;;;;;5077144;28;20064;-82
2022/03/09 09:20:34;;;;;;;8.57;5.07;;;4.90;99.90;;;;;;5069645;28;20040;-82
2022/03/09 09:23:00;;;;;;;7.18;5.15;;;5.00;99.90;;;;;;5070847;28;20040;-82
2022/03/09 09:25:27;;;;;;;7.05;5.15;;;5.10;99.90;;;;;;5069535;28;20040;-82
2022/03/09 09:27:54;;;;;;;8.52;5.28;;;5.20;99.90;;;;;;5069878;28;20053;-81
2022/03/09 09:30:21;;;;;;;9.70;5.80;;;5.20;99.90;;;;;;5069174;28;20113;-81
2022/03/09 09:32:47;;;;;;;6.03;4.57;;;5.20;99.90;;;;;;5056688;28;20060;-81
2022/03/09 09:35:14;;;;;;;6.57;4.75;;;5.50;99.90;;;;;;5058236;28;20055;-82
2022/03/09 09:37:40;;;;;;;6.72;5.15;;;5.50;99.90;;;;;;5061010;28;20144;-81
2022/03/09 09:40:08;;;;;;;10.35;5.72;;;5.60;99.90;;;;;;5054079;28;20040;-81
2022/03/09 09:42:34;;;;;;;7.30;5.15;;;5.70;99.90;;;;;;5055554;28;20033;-82
2022/03/09 09:45:00;;;;;;;7.55;5.65;;;7.20;99.90;;;;;;5052700;28;20063;-81
2022/03/09 09:47:28;;;;;;;8.52;6.07;;;5.90;99.90;;;;;;5062857;28;20037;-81
2022/03/09 09:49:56;;;;;;;7.05;5.22;;;6.00;99.90;;;;;;5051848;28;20044;-81
2022/03/09 09:52:28;;;;;;;8.38;5.43;;;6.20;98.70;;;;;;5078178;28;20051;-82
2022/03/09 09:54:59;;;;;;;6.95;5.15;;;6.30;98.10;;;;;;5076097;28;20036;-81
2022/03/09 09:57:29;;;;;;;7.22;4.93;;;6.40;98.70;;;;;;5069495;28;20044;-82
2022/03/09 09:59:56;;;;;;;8.82;5.00;;;6.40;99.30;;;;;;5067003;28;20456;-82
2022/03/09 10:02:21;;;;;;;9.40;5.18;;;6.50;99.50;;;;;;5053612;28;20048;-82
2022/03/09 10:04:50;;;;;;;6.55;5.25;;;6.60;97.70;;;;;;5069233;28;20036;-82
2022/03/09 10:07:16;;;;;;;8.18;5.07;;;6.70;96.70;;;;;;5060209;28;20040;-83
2022/03/09 10:09:41;;;;;;;6.80;5.45;;;6.80;96.50;;;;;;5055657;28;20036;-82
2022/03/09 10:12:09;;;;;;;7.95;5.55;;;6.90;96.10;;;;;;5076650;28;20102;-82
2022/03/09 10:14:44;;;;;;;11.52;6.75;;;6.90;96.50;;;;;;5068762;28;20035;-82
2022/03/09 10:17:11;;;;;;;8.68;5.60;;;7.00;96.30;;;;;;5068889;28;20075;-82
2022/03/09 10:19:39;;;;;;;6.97;5.78;;;7.10;96.30;;;;;;5068488;28;20044;-83
2022/03/09 10:22:25;;;;;;;9.45;5.43;;;7.20;95.70;;;;;;5065870;28;20105;-81
2022/03/09 10:24:52;;;;;;;7.35;5.85;;;7.30;95.10;;;;;;5041675;28;20040;-82
2022/03/09 10:27:34;;;;;;;11.30;5.47;;;7.40;94.50;;;;;;5063288;28;20102;-82
2022/03/09 10:30:00;;;;;;;10.38;6.28;;;9.10;94.50;;;;;;5049723;28;20040;-81
2022/03/09 10:33:02;;;;;;;8.85;6.18;;;7.60;94.20;;;;;;5067457;28;20057;-82
2022/03/09 10:35:31;;;;;;;9.00;6.40;;;7.70;94.50;;;;;;5066333;28;20072;-82
2022/03/09 10:38:03;;;;;;;8.52;5.40;;;9.50;95.20;;;;;;5058463;28;20050;-83
2022/03/09 10:40:30;;;;;;;7.63;6.20;;;7.90;93.90;;;;;;5085086;28;20058;-82
2022/03/09 10:43:13;;;;;;;6.78;5.60;;;8.00;93.90;;;;;;5068010;28;20138;-83
2022/03/09 10:46:08;;;;;;;11.20;6.25;;;8.10;93.40;;;;;;5072316;28;20053;-82
2022/03/09 10:48:54;;;;;;;8.00;5.70;;;8.10;93.60;;;;;;5065668;28;20041;-83
2022/03/09 10:51:35;;;;;;;9.77;5.47;;;9.50;94.10;;;;;;5064092;28;20040;-83
2022/03/09 10:54:08;;;;;;;11.18;5.97;;;8.30;93.00;;;;;;5071258;28;20048;-82
2022/03/09 10:56:34;;;;;;;10.13;6.13;;;8.40;92.70;;;;;;5065644;28;20560;-82
2022/03/09 10:59:19;;;;;;;7.13;5.32;;;8.40;92.90;;;;;;5070462;28;20518;-81
2022/03/09 11:02:03;;;;;;;8.57;5.60;;;8.50;93.00;;;;;;5071082;28;20487;-80
2022/03/09 11:04:29;;;;;;;8.75;6.05;;;8.60;91.00;;;;;;5065626;28;20115;-82
2022/03/09 11:06:57;;;;;;;7.65;5.28;;;8.70;91.70;;;;;;5054860;28;20544;-81
2022/03/09 11:09:22;;;;;;;9.75;6.68;;;8.70;91.50;;;;;;5065919;28;20093;-81
2022/03/09 11:11:49;;;;;;;8.10;5.85;;;8.80;91.50;;;;;;5071355;28;20040;-81
2022/03/09 11:14:17;;;;;;;8.82;5.65;;;9.00;91.20;;;;;;5072271;28;20048;-82
2022/03/09 11:16:43;;;;;;;9.55;6.43;;;9.10;91.10;;;;;;5079840;28;20052;-81
2022/03/09 11:19:12;;;;;;;8.35;6.40;;;9.10;91.00;;;;;;5055691;28;20124;-80
2022/03/09 11:21:38;;;;;;;10.13;6.40;;;9.30;90.80;;;;;;5068336;28;20044;-82
2022/03/09 11:24:06;;;;;;;9.05;6.00;;;9.40;90.20;;;;;;5057865;28;20041;-81
2022/03/09 11:26:34;;;;;;;10.48;7.10;;;9.60;90.20;;;;;;5069574;28;20076;-79
2022/03/09 11:29:02;;;;;;;11.25;6.60;;;9.70;90.20;;;;;;5069161;28;20056;-84
2022/03/09 11:31:47;;;;;;;8.90;6.05;;;9.90;90.00;;;;;;5071161;28;20067;-83
2022/03/09 11:34:35;;;;;;;7.53;6.07;;;10.00;88.90;;;;;;4715548;28;9999813;-82
2022/03/09 11:37:02;;;;;;;10.20;6.13;;;10.00;86.90;;;;;;5049689;28;20128;-82
2022/03/09 11:39:28;;;;;;;7.15;6.40;;;10.20;87.70;;;;;;5067816;28;20083;-82
2022/03/09 11:42:21;;;;;;;8.75;6.30;;;10.30;87.00;;;;;;5066010;28;20087;-87
2022/03/09 11:44:48;;;;;;;6.20;5.57;;;10.40;87.30;;;;;;5058372;28;20041;-82
2022/03/09 11:47:14;;;;;;;9.02;6.45;;;10.50;86.80;;;;;;5057074;28;20127;-83
2022/03/09 11:49:43;;;;;;;9.40;6.40;;;10.60;81.00;;;;;;5046291;28;20127;-83
2022/03/09 11:52:14;;;;;;;9.18;6.45;;;10.70;81.70;;;;;;5049151;28;20048;-82
2022/03/09 11:54:45;;;;;;;9.10;5.85;;;10.80;81.90;;;;;;5063419;28;20043;-83
2022/03/09 11:57:16;;;;;;;9.13;6.22;;;10.90;80.00;;;;;;5048734;28;20052;-82
2022/03/09 12:00:06;;;;;;;7.32;5.82;;;11.00;80.00;;;;;;5065008;28;20036;-82
2022/03/09 12:02:39;;;;;;;7.70;5.90;;;11.10;80.90;;;;;;5069026;28;20404;-84
2022/03/09 12:05:06;;;;;;;7.80;6.53;;;11.20;77.70;;;;;;5065107;28;20071;-82
2022/03/09 12:07:37;;;;;;;7.35;6.47;;;11.20;79.30;;;;;;5046570;28;20079;-86
2022/03/09 12:10:09;;;;;;;7.30;6.32;;;11.30;77.30;;;;;;5044593;28;20135;-84
2022/03/09 12:12:36;;;;;;;8.52;6.10;;;11.40;75.70;;;;;;5056465;28;20040;-82
2022/03/09 12:15:05;;;;;;;7.57;6.35;;;11.50;76.30;;;;;;5062020;28;20246;-80
2022/03/09 12:17:38;;;;;;;8.82;6.70;;;11.70;75.10;;;;;;5054862;28;20565;-87
2022/03/09 12:20:24;;;;;;;10.18;6.50;;;11.80;74.70;;;;;;5063442;28;20051;-86
2022/03/09 12:22:56;;;;;;;9.30;6.72;;;11.80;73.00;;;;;;5049359;28;20113;-86
2022/03/09 12:25:41;;;;;;;8.88;6.25;;;12.00;75.00;;;;;;5075147;28;20075;-86
2022/03/09 12:28:28;;;;;;;8.00;6.05;;;13.50;75.30;;;;;;5044473;28;20052;-87
2022/03/09 12:31:19;;;;;;;6.68;6.13;;;12.30;74.10;;;;;;5048294;28;20488;-83
2022/03/09 12:33:49;;;;;;;12.18;6.22;;;12.40;71.50;;;;;;5048431;28;20083;-84
2022/03/09 12:36:24;;;;;;;7.13;6.18;;;12.40;71.80;;;;;;5064249;28;20059;-83
2022/03/09 12:38:55;;;;;;;7.38;5.75;;;12.60;71.20;;;;;;5043789;28;20055;-82
2022/03/09 12:41:34;;;;;;;11.95;6.38;;;12.70;71.30;;;;;;5061264;28;20045;-85
2022/03/09 12:44:08;;;;;;;7.38;6.57;;;12.80;71.70;;;;;;5065025;28;20048;-84
2022/03/09 12:46:35;;;;;;;10.13;6.50;;;12.90;71.10;;;;;;5062519;28;20029;-85
2022/03/09 12:49:09;;;;;;;7.15;6.30;;;13.00;68.00;;;;;;5065350;28;20063;-84
2022/03/09 12:51:37;;;;;;;9.93;6.50;;;13.10;66.50;;;;;;5065379;28;20045;-82
2022/03/09 12:54:03;;;;;;;7.72;6.45;;;13.20;65.50;;;;;;5045216;28;20036;-83
2022/03/09 12:56:30;;;;;;;7.97;6.55;;;13.30;66.30;;;;;;5065356;28;20170;-82
2022/03/09 12:59:13;;;;;;;7.03;6.32;;;13.40;63.50;;;;;;5048596;28;20041;-82